sensor_id;sensor_type;location;lat;lon;timestamp;temperature;humidity
72712;SHT30;60828;40.292;17.998;2022-07-29T00:01:20;25.65;69.14
72712;SHT30;60828;40.292;17.998;2022-07-29T00:03:51;25.66;69.12
72712;SHT30;60828;40.292;17.998;2022-07-29T00:06:16;25.63;69.11
72712;SHT30;60828;40.292;17.998;2022-07-29T00:08:42;25.74;68.62
72712;SHT30;60828;40.292;17.998;2022-07-29T00:11:11;25.80;68.26
72712;SHT30;60828;40.292;17.998;2022-07-29T00:13:42;25.69;68.58
72712;SHT30;60828;40.292;17.998;2022-07-29T00:16:07;25.56;68.85
72712;SHT30;60828;40.292;17.998;2022-07-29T00:18:33;25.46;68.78
72712;SHT30;60828;40.292;17.998;2022-07-29T00:21:01;25.49;68.77
72712;SHT30;60828;40.292;17.998;2022-07-29T00:23:27;25.54;68.83
72712;SHT30;60828;40.292;17.998;2022-07-29T00:25:52;25.53;69.04
72712;SHT30;60828;40.292;17.998;2022-07-29T00:28:18;25.52;69.05
72712;SHT30;60828;40.292;17.998;2022-07-29T00:30:43;25.43;69.54
72712;SHT30;60828;40.292;17.998;2022-07-29T00:33:10;25.42;69.88
72712;SHT30;60828;40.292;17.998;2022-07-29T00:35:36;25.52;69.48
72712;SHT30;60828;40.292;17.998;2022-07-29T00:38:13;25.42;69.96
72712;SHT30;60828;40.292;17.998;2022-07-29T00:40:39;25.46;69.76
72712;SHT30;60828;40.292;17.998;2022-07-29T00:43:04;25.47;69.53
72712;SHT30;60828;40.292;17.998;2022-07-29T00:45:30;25.33;70.05
72712;SHT30;60828;40.292;17.998;2022-07-29T00:47:59;25.33;69.98
72712;SHT30;60828;40.292;17.998;2022-07-29T00:50:25;25.24;69.96
72712;SHT30;60828;40.292;17.998;2022-07-29T00:52:56;25.16;70.12
72712;SHT30;60828;40.292;17.998;2022-07-29T00:55:22;25.24;69.97
72712;SHT30;60828;40.292;17.998;2022-07-29T00:57:48;25.42;69.40
72712;SHT30;60828;40.292;17.998;2022-07-29T01:00:20;25.47;69.15
72712;SHT30;60828;40.292;17.998;2022-07-29T01:02:47;25.36;69.22
72712;SHT30;60828;40.292;17.998;2022-07-29T01:05:20;25.25;69.64
72712;SHT30;60828;40.292;17.998;2022-07-29T01:07:48;25.24;69.50
72712;SHT30;60828;40.292;17.998;2022-07-29T01:10:15;25.10;70.10
72712;SHT30;60828;40.292;17.998;2022-07-29T01:12:43;25.10;70.21
72712;SHT30;60828;40.292;17.998;2022-07-29T01:15:10;25.01;70.51
72712;SHT30;60828;40.292;17.998;2022-07-29T01:17:43;24.90;71.11
72712;SHT30;60828;40.292;17.998;2022-07-29T01:31:10;24.66;72.57
72712;SHT30;60828;40.292;17.998;2022-07-29T01:33:41;24.81;72.12
72712;SHT30;60828;40.292;17.998;2022-07-29T01:36:30;24.86;72.21
72712;SHT30;60828;40.292;17.998;2022-07-29T01:39:10;24.83;72.28
72712;SHT30;60828;40.292;17.998;2022-07-29T01:41:40;24.84;72.34
72712;SHT30;60828;40.292;17.998;2022-07-29T01:44:23;24.71;72.85
72712;SHT30;60828;40.292;17.998;2022-07-29T01:46:58;24.76;72.82
72712;SHT30;60828;40.292;17.998;2022-07-29T01:49:27;24.86;72.67
72712;SHT30;60828;40.292;17.998;2022-07-29T01:51:58;24.87;72.58
72712;SHT30;60828;40.292;17.998;2022-07-29T01:54:38;24.87;72.54
72712;SHT30;60828;40.292;17.998;2022-07-29T01:57:09;24.97;72.32
72712;SHT30;60828;40.292;17.998;2022-07-29T01:59:37;24.95;72.50
72712;SHT30;60828;40.292;17.998;2022-07-29T02:02:04;24.95;72.46
72712;SHT30;60828;40.292;17.998;2022-07-29T02:04:31;24.76;73.27
72712;SHT30;60828;40.292;17.998;2022-07-29T02:07:05;24.70;73.59
72712;SHT30;60828;40.292;17.998;2022-07-29T02:09:34;24.70;73.67
72712;SHT30;60828;40.292;17.998;2022-07-29T02:12:02;24.70;73.83
72712;SHT30;60828;40.292;17.998;2022-07-29T02:14:32;24.74;73.96
72712;SHT30;60828;40.292;17.998;2022-07-29T02:16:59;24.70;74.30
72712;SHT30;60828;40.292;17.998;2022-07-29T02:19:27;24.71;74.52
72712;SHT30;60828;40.292;17.998;2022-07-29T02:21:54;24.61;75.04
72712;SHT30;60828;40.292;17.998;2022-07-29T02:24:23;24.84;74.39
72712;SHT30;60828;40.292;17.998;2022-07-29T02:26:50;24.76;74.57
72712;SHT30;60828;40.292;17.998;2022-07-29T02:29:17;24.78;74.66
72712;SHT30;60828;40.292;17.998;2022-07-29T02:31:44;24.81;74.69
72712;SHT30;60828;40.292;17.998;2022-07-29T02:34:12;24.74;75.16
72712;SHT30;60828;40.292;17.998;2022-07-29T02:36:40;24.76;75.15
72712;SHT30;60828;40.292;17.998;2022-07-29T02:39:07;24.80;75.25
72712;SHT30;60828;40.292;17.998;2022-07-29T02:41:40;24.76;75.34
72712;SHT30;60828;40.292;17.998;2022-07-29T02:44:14;25.03;74.37
72712;SHT30;60828;40.292;17.998;2022-07-29T02:50:23;24.88;74.54
72712;SHT30;60828;40.292;17.998;2022-07-29T02:55:58;24.91;74.70
72712;SHT30;60828;40.292;17.998;2022-07-29T02:58:28;24.84;74.96
72712;SHT30;60828;40.292;17.998;2022-07-29T03:00:56;24.87;75.06
72712;SHT30;60828;40.292;17.998;2022-07-29T03:03:27;24.84;75.52
72712;SHT30;60828;40.292;17.998;2022-07-29T03:05:57;24.92;75.57
72712;SHT30;60828;40.292;17.998;2022-07-29T03:08:25;24.95;75.54
72712;SHT30;60828;40.292;17.998;2022-07-29T03:10:52;25.04;75.93
72712;SHT30;60828;40.292;17.998;2022-07-29T03:13:19;24.87;76.63
72712;SHT30;60828;40.292;17.998;2022-07-29T03:15:45;25.03;76.28
72712;SHT30;60828;40.292;17.998;2022-07-29T03:18:12;24.95;76.68
72712;SHT30;60828;40.292;17.998;2022-07-29T03:20:38;25.10;76.48
72712;SHT30;60828;40.292;17.998;2022-07-29T03:23:04;25.11;76.71
72712;SHT30;60828;40.292;17.998;2022-07-29T03:25:30;25.11;76.75
72712;SHT30;60828;40.292;17.998;2022-07-29T03:27:56;25.18;76.86
72712;SHT30;60828;40.292;17.998;2022-07-29T03:30:22;25.32;76.61
72712;SHT30;60828;40.292;17.998;2022-07-29T03:32:49;25.32;76.89
72712;SHT30;60828;40.292;17.998;2022-07-29T03:35:17;25.24;77.10
72712;SHT30;60828;40.292;17.998;2022-07-29T03:37:43;25.31;77.10
72712;SHT30;60828;40.292;17.998;2022-07-29T03:40:11;25.31;77.22
72712;SHT30;60828;40.292;17.998;2022-07-29T03:42:43;25.36;76.86
72712;SHT30;60828;40.292;17.998;2022-07-29T03:45:13;25.45;76.99
72712;SHT30;60828;40.292;17.998;2022-07-29T03:47:51;25.33;77.20
72712;SHT30;60828;40.292;17.998;2022-07-29T03:50:18;25.35;77.34
72712;SHT30;60828;40.292;17.998;2022-07-29T03:52:46;25.29;77.51
72712;SHT30;60828;40.292;17.998;2022-07-29T03:55:13;25.33;77.36
72712;SHT30;60828;40.292;17.998;2022-07-29T03:57:39;25.35;77.39
72712;SHT30;60828;40.292;17.998;2022-07-29T04:00:06;25.39;77.23
72712;SHT30;60828;40.292;17.998;2022-07-29T04:02:32;25.50;76.94
72712;SHT30;60828;40.292;17.998;2022-07-29T04:04:58;25.50;76.77
72712;SHT30;60828;40.292;17.998;2022-07-29T04:07:25;25.54;76.53
72712;SHT30;60828;40.292;17.998;2022-07-29T04:09:51;25.62;76.28
72712;SHT30;60828;40.292;17.998;2022-07-29T04:12:17;25.69;76.02
72712;SHT30;60828;40.292;17.998;2022-07-29T04:14:43;25.73;75.85
72712;SHT30;60828;40.292;17.998;2022-07-29T04:17:08;25.74;75.53
72712;SHT30;60828;40.292;17.998;2022-07-29T04:19:34;25.72;75.71
72712;SHT30;60828;40.292;17.998;2022-07-29T04:22:01;25.81;75.31
72712;SHT30;60828;40.292;17.998;2022-07-29T04:24:27;25.90;74.90
72712;SHT30;60828;40.292;17.998;2022-07-29T04:26:53;25.72;75.36
72712;SHT30;60828;40.292;17.998;2022-07-29T04:29:18;25.59;75.55
72712;SHT30;60828;40.292;17.998;2022-07-29T04:31:45;25.58;75.99
72712;SHT30;60828;40.292;17.998;2022-07-29T04:34:11;25.52;76.22
72712;SHT30;60828;40.292;17.998;2022-07-29T04:36:39;25.58;76.33
72712;SHT30;60828;40.292;17.998;2022-07-29T04:39:04;25.73;75.87
72712;SHT30;60828;40.292;17.998;2022-07-29T04:41:30;25.96;73.92
72712;SHT30;60828;40.292;17.998;2022-07-29T04:43:56;25.89;72.10
72712;SHT30;60828;40.292;17.998;2022-07-29T04:46:23;25.87;72.20
72712;SHT30;60828;40.292;17.998;2022-07-29T04:48:49;25.97;71.95
72712;SHT30;60828;40.292;17.998;2022-07-29T04:51:15;26.08;71.50
72712;SHT30;60828;40.292;17.998;2022-07-29T04:53:42;26.28;70.86
72712;SHT30;60828;40.292;17.998;2022-07-29T04:56:08;26.31;70.77
72712;SHT30;60828;40.292;17.998;2022-07-29T04:58:34;26.44;70.89
72712;SHT30;60828;40.292;17.998;2022-07-29T05:01:00;26.51;70.72
72712;SHT30;60828;40.292;17.998;2022-07-29T05:03:25;26.62;70.80
72712;SHT30;60828;40.292;17.998;2022-07-29T05:05:51;26.57;71.23
72712;SHT30;60828;40.292;17.998;2022-07-29T05:08:16;26.72;71.02
72712;SHT30;60828;40.292;17.998;2022-07-29T05:10:51;26.87;71.17
72712;SHT30;60828;40.292;17.998;2022-07-29T05:13:17;27.00;71.44
72712;SHT30;60828;40.292;17.998;2022-07-29T05:15:42;27.17;71.31
72712;SHT30;60828;40.292;17.998;2022-07-29T05:18:08;27.41;70.94
72712;SHT30;60828;40.292;17.998;2022-07-29T05:20:35;27.57;71.04
72712;SHT30;60828;40.292;17.998;2022-07-29T05:23:02;27.62;71.01
72712;SHT30;60828;40.292;17.998;2022-07-29T05:25:28;27.88;70.91
72712;SHT30;60828;40.292;17.998;2022-07-29T05:27:54;27.84;71.42
72712;SHT30;60828;40.292;17.998;2022-07-29T05:30:21;28.00;71.27
72712;SHT30;60828;40.292;17.998;2022-07-29T05:32:46;28.17;71.17
72712;SHT30;60828;40.292;17.998;2022-07-29T05:35:13;29.44;67.39
72712;SHT30;60828;40.292;17.998;2022-07-29T05:37:38;32.45;58.91
72712;SHT30;60828;40.292;17.998;2022-07-29T05:40:04;36.04;49.34
72712;SHT30;60828;40.292;17.998;2022-07-29T05:42:30;38.81;43.34
72712;SHT30;60828;40.292;17.998;2022-07-29T05:44:56;40.70;39.44
72712;SHT30;60828;40.292;17.998;2022-07-29T05:47:22;42.43;36.70
72712;SHT30;60828;40.292;17.998;2022-07-29T05:49:48;43.06;35.49
72712;SHT30;60828;40.292;17.998;2022-07-29T05:52:14;43.94;33.96
72712;SHT30;60828;40.292;17.998;2022-07-29T05:54:39;43.92;34.15
72712;SHT30;60828;40.292;17.998;2022-07-29T05:57:05;42.90;35.69
72712;SHT30;60828;40.292;17.998;2022-07-29T05:59:35;43.02;35.37
72712;SHT30;60828;40.292;17.998;2022-07-29T06:02:00;43.30;35.11
72712;SHT30;60828;40.292;17.998;2022-07-29T06:04:26;42.81;35.64
72712;SHT30;60828;40.292;17.998;2022-07-29T06:06:51;44.04;33.67
72712;SHT30;60828;40.292;17.998;2022-07-29T06:09:17;44.12;33.21
72712;SHT30;60828;40.292;17.998;2022-07-29T06:11:42;42.90;34.60
72712;SHT30;60828;40.292;17.998;2022-07-29T06:14:08;42.57;34.98
72712;SHT30;60828;40.292;17.998;2022-07-29T06:16:33;42.09;35.17
72712;SHT30;60828;40.292;17.998;2022-07-29T06:18:58;42.64;34.46
72712;SHT30;60828;40.292;17.998;2022-07-29T06:21:24;42.33;34.86
72712;SHT30;60828;40.292;17.998;2022-07-29T06:23:49;42.99;34.13
72712;SHT30;60828;40.292;17.998;2022-07-29T06:26:15;43.46;33.46
72712;SHT30;60828;40.292;17.998;2022-07-29T06:28:41;43.77;33.21
72712;SHT30;60828;40.292;17.998;2022-07-29T06:31:06;44.02;32.57
72712;SHT30;60828;40.292;17.998;2022-07-29T06:33:32;44.46;31.75
72712;SHT30;60828;40.292;17.998;2022-07-29T06:35:58;44.18;31.13
72712;SHT30;60828;40.292;17.998;2022-07-29T06:38:24;44.48;29.79
72712;SHT30;60828;40.292;17.998;2022-07-29T06:40:50;43.95;31.19
72712;SHT30;60828;40.292;17.998;2022-07-29T06:43:27;44.36;30.68
72712;SHT30;60828;40.292;17.998;2022-07-29T06:45:54;42.29;31.30
72712;SHT30;60828;40.292;17.998;2022-07-29T06:48:19;42.70;30.86
72712;SHT30;60828;40.292;17.998;2022-07-29T06:50:45;43.58;31.72
72712;SHT30;60828;40.292;17.998;2022-07-29T06:53:10;44.17;30.91
72712;SHT30;60828;40.292;17.998;2022-07-29T06:55:36;43.68;29.18
72712;SHT30;60828;40.292;17.998;2022-07-29T06:58:02;42.65;30.19
72712;SHT30;60828;40.292;17.998;2022-07-29T07:00:28;43.60;28.21
72712;SHT30;60828;40.292;17.998;2022-07-29T07:02:53;43.02;28.65
72712;SHT30;60828;40.292;17.998;2022-07-29T07:05:19;43.13;28.13
72712;SHT30;60828;40.292;17.998;2022-07-29T07:07:44;42.16;28.29
72712;SHT30;60828;40.292;17.998;2022-07-29T07:10:09;42.24;28.47
72712;SHT30;60828;40.292;17.998;2022-07-29T07:12:35;42.55;28.63
72712;SHT30;60828;40.292;17.998;2022-07-29T07:15:00;43.06;28.31
72712;SHT30;60828;40.292;17.998;2022-07-29T07:17:26;43.84;26.84
72712;SHT30;60828;40.292;17.998;2022-07-29T07:19:51;41.28;28.90
72712;SHT30;60828;40.292;17.998;2022-07-29T07:22:17;41.38;29.32
72712;SHT30;60828;40.292;17.998;2022-07-29T07:24:42;41.64;28.73
72712;SHT30;60828;40.292;17.998;2022-07-29T07:27:08;41.78;28.73
72712;SHT30;60828;40.292;17.998;2022-07-29T07:29:33;41.45;29.18
72712;SHT30;60828;40.292;17.998;2022-07-29T07:31:59;40.92;29.77
72712;SHT30;60828;40.292;17.998;2022-07-29T07:34:24;40.27;29.77
72712;SHT30;60828;40.292;17.998;2022-07-29T07:36:49;39.67;30.49
72712;SHT30;60828;40.292;17.998;2022-07-29T07:39:15;41.03;29.25
72712;SHT30;60828;40.292;17.998;2022-07-29T07:41:40;41.44;28.77
72712;SHT30;60828;40.292;17.998;2022-07-29T07:44:06;40.51;29.24
72712;SHT30;60828;40.292;17.998;2022-07-29T07:46:31;41.54;28.83
72712;SHT30;60828;40.292;17.998;2022-07-29T07:48:57;40.52;29.09
72712;SHT30;60828;40.292;17.998;2022-07-29T07:51:22;40.27;30.02
72712;SHT30;60828;40.292;17.998;2022-07-29T07:53:48;40.29;30.31
72712;SHT30;60828;40.292;17.998;2022-07-29T07:56:16;41.37;28.54
72712;SHT30;60828;40.292;17.998;2022-07-29T07:58:41;40.94;28.57
72712;SHT30;60828;40.292;17.998;2022-07-29T08:01:08;40.67;28.85
72712;SHT30;60828;40.292;17.998;2022-07-29T08:03:33;39.64;29.53
72712;SHT30;60828;40.292;17.998;2022-07-29T08:05:59;40.31;29.22
72712;SHT30;60828;40.292;17.998;2022-07-29T08:08:25;39.26;28.97
72712;SHT30;60828;40.292;17.998;2022-07-29T08:10:50;39.64;28.24
72712;SHT30;60828;40.292;17.998;2022-07-29T08:13:20;39.22;29.25
72712;SHT30;60828;40.292;17.998;2022-07-29T08:15:46;39.21;29.27
72712;SHT30;60828;40.292;17.998;2022-07-29T08:18:12;39.94;28.64
72712;SHT30;60828;40.292;17.998;2022-07-29T08:20:38;41.06;27.33
72712;SHT30;60828;40.292;17.998;2022-07-29T08:23:06;40.93;26.31
72712;SHT30;60828;40.292;17.998;2022-07-29T08:25:37;39.91;27.94
72712;SHT30;60828;40.292;17.998;2022-07-29T08:28:04;39.83;27.63
72712;SHT30;60828;40.292;17.998;2022-07-29T08:30:30;40.22;26.80
72712;SHT30;60828;40.292;17.998;2022-07-29T08:32:57;40.93;27.04
72712;SHT30;60828;40.292;17.998;2022-07-29T08:35:24;39.98;27.74
72712;SHT30;60828;40.292;17.998;2022-07-29T08:37:51;39.70;26.68
72712;SHT30;60828;40.292;17.998;2022-07-29T08:40:16;39.29;27.19
72712;SHT30;60828;40.292;17.998;2022-07-29T08:42:42;39.01;28.12
72712;SHT30;60828;40.292;17.998;2022-07-29T08:45:08;39.09;28.11
72712;SHT30;60828;40.292;17.998;2022-07-29T08:47:34;39.90;27.97
72712;SHT30;60828;40.292;17.998;2022-07-29T08:50:03;38.84;28.11
72712;SHT30;60828;40.292;17.998;2022-07-29T08:52:29;38.46;28.49
72712;SHT30;60828;40.292;17.998;2022-07-29T08:54:57;38.56;29.29
72712;SHT30;60828;40.292;17.998;2022-07-29T08:57:23;38.92;29.09
72712;SHT30;60828;40.292;17.998;2022-07-29T08:59:50;39.21;27.51
72712;SHT30;60828;40.292;17.998;2022-07-29T09:02:22;39.80;27.53
72712;SHT30;60828;40.292;17.998;2022-07-29T09:04:48;39.89;28.07
72712;SHT30;60828;40.292;17.998;2022-07-29T09:07:15;38.98;27.90
72712;SHT30;60828;40.292;17.998;2022-07-29T09:09:41;39.49;27.41
72712;SHT30;60828;40.292;17.998;2022-07-29T09:12:07;39.49;27.63
72712;SHT30;60828;40.292;17.998;2022-07-29T09:14:33;39.21;27.85
72712;SHT30;60828;40.292;17.998;2022-07-29T09:16:58;39.49;27.78
72712;SHT30;60828;40.292;17.998;2022-07-29T09:19:35;39.02;28.07
72712;SHT30;60828;40.292;17.998;2022-07-29T09:22:02;38.91;28.48
72712;SHT30;60828;40.292;17.998;2022-07-29T09:27:19;39.11;29.02
72712;SHT30;60828;40.292;17.998;2022-07-29T09:30:08;39.18;29.10
72712;SHT30;60828;40.292;17.998;2022-07-29T09:32:53;38.94;29.15
72712;SHT30;60828;40.292;17.998;2022-07-29T09:35:21;39.19;29.72
72712;SHT30;60828;40.292;17.998;2022-07-29T09:37:48;39.04;30.18
72712;SHT30;60828;40.292;17.998;2022-07-29T09:40:21;39.01;30.23
72712;SHT30;60828;40.292;17.998;2022-07-29T09:42:47;39.47;29.29
72712;SHT30;60828;40.292;17.998;2022-07-29T09:45:29;39.02;29.44
72712;SHT30;60828;40.292;17.998;2022-07-29T09:47:55;38.94;29.68
72712;SHT30;60828;40.292;17.998;2022-07-29T09:50:22;39.18;29.79
72712;SHT30;60828;40.292;17.998;2022-07-29T09:52:59;38.92;31.31
72712;SHT30;60828;40.292;17.998;2022-07-29T09:55:25;38.74;31.38
72712;SHT30;60828;40.292;17.998;2022-07-29T09:57:50;38.59;31.89
72712;SHT30;60828;40.292;17.998;2022-07-29T10:00:18;38.61;32.10
72712;SHT30;60828;40.292;17.998;2022-07-29T10:02:46;39.01;31.82
72712;SHT30;60828;40.292;17.998;2022-07-29T10:05:23;39.12;31.26
72712;SHT30;60828;40.292;17.998;2022-07-29T10:07:56;39.15;31.57
72712;SHT30;60828;40.292;17.998;2022-07-29T10:10:27;39.01;31.58
72712;SHT30;60828;40.292;17.998;2022-07-29T10:12:57;38.91;32.11
72712;SHT30;60828;40.292;17.998;2022-07-29T10:15:26;39.32;31.48
72712;SHT30;60828;40.292;17.998;2022-07-29T10:17:54;38.91;32.07
72712;SHT30;60828;40.292;17.998;2022-07-29T10:20:21;39.23;31.94
72712;SHT30;60828;40.292;17.998;2022-07-29T10:22:48;39.14;31.84
72712;SHT30;60828;40.292;17.998;2022-07-29T10:25:14;39.70;30.91
72712;SHT30;60828;40.292;17.998;2022-07-29T10:27:40;39.80;31.02
72712;SHT30;60828;40.292;17.998;2022-07-29T10:30:06;39.56;30.48
72712;SHT30;60828;40.292;17.998;2022-07-29T10:36:10;39.42;30.73
72712;SHT30;60828;40.292;17.998;2022-07-29T10:42:22;39.14;30.44
72712;SHT30;60828;40.292;17.998;2022-07-29T10:44:24;39.52;29.25
72712;SHT30;60828;40.292;17.998;2022-07-29T10:46:51;39.98;28.19
72712;SHT30;60828;40.292;17.998;2022-07-29T10:49:27;40.18;27.33
72712;SHT30;60828;40.292;17.998;2022-07-29T10:57:27;39.09;28.99
72712;SHT30;60828;40.292;17.998;2022-07-29T11:05:16;39.83;30.17
72712;SHT30;60828;40.292;17.998;2022-07-29T11:10:52;39.30;28.67
72712;SHT30;60828;40.292;17.998;2022-07-29T11:16:08;40.29;27.83
72712;SHT30;60828;40.292;17.998;2022-07-29T11:18:34;39.52;27.98
72712;SHT30;60828;40.292;17.998;2022-07-29T11:20:59;39.47;27.91
72712;SHT30;60828;40.292;17.998;2022-07-29T11:23:33;39.42;28.18
72712;SHT30;60828;40.292;17.998;2022-07-29T11:31:50;40.04;27.17
72712;SHT30;60828;40.292;17.998;2022-07-29T11:34:30;39.62;26.67
72712;SHT30;60828;40.292;17.998;2022-07-29T11:45:15;40.00;27.81
72712;SHT30;60828;40.292;17.998;2022-07-29T11:47:52;40.14;27.16
72712;SHT30;60828;40.292;17.998;2022-07-29T11:50:38;40.14;27.44
72712;SHT30;60828;40.292;17.998;2022-07-29T11:53:12;39.78;29.26
72712;SHT30;60828;40.292;17.998;2022-07-29T11:55:39;39.97;29.49
72712;SHT30;60828;40.292;17.998;2022-07-29T11:58:05;40.44;29.16
72712;SHT30;60828;40.292;17.998;2022-07-29T12:00:37;40.27;29.02
72712;SHT30;60828;40.292;17.998;2022-07-29T12:03:06;40.93;28.17
72712;SHT30;60828;40.292;17.998;2022-07-29T12:05:41;40.08;30.11
72712;SHT30;60828;40.292;17.998;2022-07-29T12:08:38;39.91;30.38
72712;SHT30;60828;40.292;17.998;2022-07-29T12:11:15;40.04;29.87
72712;SHT30;60828;40.292;17.998;2022-07-29T12:13:41;39.42;30.80
72712;SHT30;60828;40.292;17.998;2022-07-29T12:16:06;38.84;31.39
72712;SHT30;60828;40.292;17.998;2022-07-29T12:18:32;38.82;31.34
72712;SHT30;60828;40.292;17.998;2022-07-29T12:21:01;39.30;31.53
72712;SHT30;60828;40.292;17.998;2022-07-29T12:23:33;38.66;31.94
72712;SHT30;60828;40.292;17.998;2022-07-29T12:25:59;38.79;31.79
72712;SHT30;60828;40.292;17.998;2022-07-29T12:28:25;39.12;31.12
72712;SHT30;60828;40.292;17.998;2022-07-29T12:30:51;39.23;31.13
72712;SHT30;60828;40.292;17.998;2022-07-29T12:33:28;39.30;30.81
72712;SHT30;60828;40.292;17.998;2022-07-29T12:35:56;39.33;30.43
72712;SHT30;60828;40.292;17.998;2022-07-29T12:38:22;39.86;29.28
72712;SHT30;60828;40.292;17.998;2022-07-29T12:40:49;40.27;28.85
72712;SHT30;60828;40.292;17.998;2022-07-29T12:43:17;39.81;29.77
72712;SHT30;60828;40.292;17.998;2022-07-29T12:45:49;39.45;30.24
72712;SHT30;60828;40.292;17.998;2022-07-29T12:48:32;39.94;29.40
72712;SHT30;60828;40.292;17.998;2022-07-29T12:50:59;39.60;30.12
72712;SHT30;60828;40.292;17.998;2022-07-29T12:53:25;39.29;29.91
72712;SHT30;60828;40.292;17.998;2022-07-29T12:55:52;39.11;30.47
72712;SHT30;60828;40.292;17.998;2022-07-29T13:06:50;39.14;29.88
72712;SHT30;60828;40.292;17.998;2022-07-29T13:09:15;39.39;29.93
72712;SHT30;60828;40.292;17.998;2022-07-29T13:11:43;39.05;29.99
72712;SHT30;60828;40.292;17.998;2022-07-29T13:14:10;39.23;29.33
72712;SHT30;60828;40.292;17.998;2022-07-29T13:16:36;38.94;29.54
72712;SHT30;60828;40.292;17.998;2022-07-29T13:19:11;39.02;29.02
72712;SHT30;60828;40.292;17.998;2022-07-29T13:21:37;39.05;29.48
72712;SHT30;60828;40.292;17.998;2022-07-29T13:24:03;39.05;29.04
72712;SHT30;60828;40.292;17.998;2022-07-29T13:26:29;39.18;29.03
72712;SHT30;60828;40.292;17.998;2022-07-29T13:28:54;38.99;28.91
72712;SHT30;60828;40.292;17.998;2022-07-29T13:31:20;39.08;28.46
72712;SHT30;60828;40.292;17.998;2022-07-29T13:33:47;39.46;28.65
72712;SHT30;60828;40.292;17.998;2022-07-29T13:36:12;39.36;28.51
72712;SHT30;60828;40.292;17.998;2022-07-29T13:38:38;38.63;29.39
72712;SHT30;60828;40.292;17.998;2022-07-29T13:41:03;38.92;29.85
72712;SHT30;60828;40.292;17.998;2022-07-29T13:43:29;39.04;29.68
72712;SHT30;60828;40.292;17.998;2022-07-29T13:45:54;39.19;27.61
72712;SHT30;60828;40.292;17.998;2022-07-29T13:48:19;39.16;28.25
72712;SHT30;60828;40.292;17.998;2022-07-29T13:50:45;38.79;29.30
72712;SHT30;60828;40.292;17.998;2022-07-29T13:53:11;38.50;29.40
72712;SHT30;60828;40.292;17.998;2022-07-29T13:55:37;38.70;29.41
72712;SHT30;60828;40.292;17.998;2022-07-29T13:58:02;38.49;29.48
72712;SHT30;60828;40.292;17.998;2022-07-29T14:00:28;38.97;28.79
72712;SHT30;60828;40.292;17.998;2022-07-29T14:02:54;39.27;28.78
72712;SHT30;60828;40.292;17.998;2022-07-29T14:05:19;39.04;27.82
72712;SHT30;60828;40.292;17.998;2022-07-29T14:07:44;38.60;29.04
72712;SHT30;60828;40.292;17.998;2022-07-29T14:10:10;38.68;29.66
72712;SHT30;60828;40.292;17.998;2022-07-29T14:12:36;39.02;29.23
72712;SHT30;60828;40.292;17.998;2022-07-29T14:15:01;38.41;30.54
72712;SHT30;60828;40.292;17.998;2022-07-29T14:17:27;38.36;30.83
72712;SHT30;60828;40.292;17.998;2022-07-29T14:19:53;38.40;31.12
72712;SHT30;60828;40.292;17.998;2022-07-29T14:22:18;38.39;31.03
72712;SHT30;60828;40.292;17.998;2022-07-29T14:24:44;38.40;31.19
72712;SHT30;60828;40.292;17.998;2022-07-29T14:27:10;38.12;31.05
72712;SHT30;60828;40.292;17.998;2022-07-29T14:29:36;38.06;31.62
72712;SHT30;60828;40.292;17.998;2022-07-29T14:32:02;38.36;31.19
72712;SHT30;60828;40.292;17.998;2022-07-29T14:34:27;38.26;31.82
72712;SHT30;60828;40.292;17.998;2022-07-29T14:36:53;38.16;31.48
72712;SHT30;60828;40.292;17.998;2022-07-29T14:39:21;38.06;31.92
72712;SHT30;60828;40.292;17.998;2022-07-29T14:41:49;37.98;31.45
72712;SHT30;60828;40.292;17.998;2022-07-29T14:44:14;37.86;33.08
72712;SHT30;60828;40.292;17.998;2022-07-29T14:46:40;38.16;33.78
72712;SHT30;60828;40.292;17.998;2022-07-29T14:49:06;38.17;32.58
72712;SHT30;60828;40.292;17.998;2022-07-29T14:51:32;38.16;32.91
72712;SHT30;60828;40.292;17.998;2022-07-29T14:53:57;37.78;32.89
72712;SHT30;60828;40.292;17.998;2022-07-29T14:56:23;37.67;32.45
72712;SHT30;60828;40.292;17.998;2022-07-29T14:58:48;37.67;32.44
72712;SHT30;60828;40.292;17.998;2022-07-29T15:01:14;37.30;34.28
72712;SHT30;60828;40.292;17.998;2022-07-29T15:03:39;37.31;34.80
72712;SHT30;60828;40.292;17.998;2022-07-29T15:06:05;37.35;34.54
72712;SHT30;60828;40.292;17.998;2022-07-29T15:08:30;37.61;33.78
72712;SHT30;60828;40.292;17.998;2022-07-29T15:10:56;37.48;34.46
72712;SHT30;60828;40.292;17.998;2022-07-29T15:13:25;37.04;33.84
72712;SHT30;60828;40.292;17.998;2022-07-29T15:15:50;37.13;33.35
72712;SHT30;60828;40.292;17.998;2022-07-29T15:18:16;37.10;34.59
72712;SHT30;60828;40.292;17.998;2022-07-29T15:20:42;37.26;34.45
72712;SHT30;60828;40.292;17.998;2022-07-29T15:23:07;37.13;34.61
72712;SHT30;60828;40.292;17.998;2022-07-29T15:25:35;36.73;35.40
72712;SHT30;60828;40.292;17.998;2022-07-29T15:28:02;36.56;35.66
72712;SHT30;60828;40.292;17.998;2022-07-29T15:30:33;36.38;36.16
72712;SHT30;60828;40.292;17.998;2022-07-29T15:32:58;36.38;36.20
72712;SHT30;60828;40.292;17.998;2022-07-29T15:35:24;36.72;35.72
72712;SHT30;60828;40.292;17.998;2022-07-29T15:37:49;36.76;35.45
72712;SHT30;60828;40.292;17.998;2022-07-29T15:40:15;36.65;36.16
72712;SHT30;60828;40.292;17.998;2022-07-29T15:42:41;36.69;35.44
72712;SHT30;60828;40.292;17.998;2022-07-29T15:45:06;36.65;35.51
72712;SHT30;60828;40.292;17.998;2022-07-29T15:47:34;36.34;34.65
72712;SHT30;60828;40.292;17.998;2022-07-29T15:50:00;36.45;35.14
72712;SHT30;60828;40.292;17.998;2022-07-29T15:52:26;36.29;35.90
72712;SHT30;60828;40.292;17.998;2022-07-29T15:54:55;36.51;36.27
72712;SHT30;60828;40.292;17.998;2022-07-29T15:57:21;36.21;36.99
72712;SHT30;60828;40.292;17.998;2022-07-29T15:59:46;35.86;37.14
72712;SHT30;60828;40.292;17.998;2022-07-29T16:02:12;35.90;37.70
72712;SHT30;60828;40.292;17.998;2022-07-29T16:04:37;35.87;37.75
72712;SHT30;60828;40.292;17.998;2022-07-29T16:07:03;35.57;39.07
72712;SHT30;60828;40.292;17.998;2022-07-29T16:09:28;35.33;40.28
72712;SHT30;60828;40.292;17.998;2022-07-29T16:11:54;35.45;40.09
72712;SHT30;60828;40.292;17.998;2022-07-29T16:14:20;35.01;39.88
72712;SHT30;60828;40.292;17.998;2022-07-29T16:16:46;34.88;40.28
72712;SHT30;60828;40.292;17.998;2022-07-29T16:19:12;34.87;40.22
72712;SHT30;60828;40.292;17.998;2022-07-29T16:21:38;34.86;40.78
72712;SHT30;60828;40.292;17.998;2022-07-29T16:24:05;34.99;40.98